createdAt,value
2023-04-30T00:00:29.899Z,23.13
2023-04-30T00:02:57.130Z,23.10
2023-04-30T00:05:25.960Z,23.24
2023-04-30T00:07:53.269Z,23.31
2023-04-30T00:10:20.373Z,23.32
2023-04-30T00:12:47.430Z,23.26
2023-04-30T00:15:14.478Z,23.25
2023-04-30T00:17:41.694Z,23.38
2023-04-30T00:20:12.487Z,23.35
2023-04-30T00:22:39.597Z,23.32
2023-04-30T00:25:06.919Z,23.38
2023-04-30T00:27:34.065Z,23.37
2023-04-30T00:30:01.142Z,23.34
2023-04-30T00:32:28.455Z,23.35
2023-04-30T00:34:55.654Z,23.23
2023-04-30T00:37:23.129Z,23.27
2023-04-30T00:39:53.412Z,23.35
2023-04-30T00:42:20.705Z,23.46
2023-04-30T00:44:47.827Z,23.54
2023-04-30T00:47:18.727Z,23.59
2023-04-30T00:49:49.383Z,23.57
2023-04-30T00:52:16.799Z,23.61
2023-04-30T00:54:44.059Z,23.55
2023-04-30T00:57:14.289Z,23.62
2023-04-30T00:59:42.432Z,23.61
2023-04-30T01:02:13.452Z,23.66
2023-04-30T01:04:41.138Z,23.71
2023-04-30T01:07:11.149Z,23.68
2023-04-30T01:09:40.993Z,23.68
2023-04-30T01:12:39.058Z,23.58
2023-04-30T01:15:15.534Z,23.64
2023-04-30T01:17:58.066Z,23.58
2023-04-30T01:20:29.785Z,23.61
2023-04-30T01:23:21.584Z,23.61
2023-04-30T01:26:20.125Z,23.60
2023-04-30T01:28:52.425Z,23.45
2023-04-30T01:31:20.047Z,23.55
2023-04-30T01:33:47.292Z,23.53
2023-04-30T01:36:42.196Z,23.47
2023-04-30T01:39:18.984Z,23.36
2023-04-30T01:42:02.433Z,23.45
2023-04-30T01:44:49.350Z,23.44
2023-04-30T01:47:52.419Z,23.32
2023-04-30T01:50:50.149Z,23.33
2023-04-30T01:53:24.428Z,23.26
2023-04-30T01:56:04.978Z,23.07
2023-04-30T01:58:36.151Z,23.08
2023-04-30T02:01:06.896Z,23.08
2023-04-30T02:03:34.202Z,23.09
2023-04-30T02:06:01.405Z,22.97
2023-04-30T02:08:32.095Z,23.03
2023-04-30T02:11:02.943Z,23.09
2023-04-30T02:13:33.601Z,23.03
2023-04-30T02:16:07.165Z,23.07
2023-04-30T02:18:34.432Z,23.04
2023-04-30T02:21:04.450Z,23.04
2023-04-30T02:23:34.278Z,22.95
2023-04-30T02:26:03.966Z,22.99
2023-04-30T02:28:34.062Z,23.02
2023-04-30T02:31:03.449Z,23.00
2023-04-30T02:33:33.201Z,22.95
2023-04-30T02:36:01.783Z,22.95
2023-04-30T02:38:34.369Z,22.96
2023-04-30T02:41:03.428Z,22.90
2023-04-30T02:43:30.944Z,22.87
2023-04-30T02:45:58.309Z,22.69
2023-04-30T02:48:25.558Z,22.71
2023-04-30T02:50:53.588Z,22.74
2023-04-30T02:53:23.951Z,22.81
2023-04-30T02:55:53.620Z,22.80
2023-04-30T02:58:21.134Z,22.81
2023-04-30T03:00:48.328Z,22.81
2023-04-30T03:03:15.986Z,22.85
2023-04-30T03:05:44.167Z,22.81
2023-04-30T03:08:11.179Z,22.80
2023-04-30T03:10:38.175Z,22.84
2023-04-30T03:13:05.235Z,22.86
2023-04-30T03:15:34.708Z,22.76
2023-04-30T03:18:01.865Z,22.92
2023-04-30T03:20:29.000Z,22.95
2023-04-30T03:22:56.124Z,22.95
2023-04-30T03:25:23.372Z,22.93
2023-04-30T03:27:50.366Z,22.98
2023-04-30T03:30:17.676Z,23.01
2023-04-30T03:32:45.208Z,23.00
2023-04-30T03:35:12.308Z,23.05
2023-04-30T03:37:39.324Z,23.10
2023-04-30T03:40:07.258Z,23.13
2023-04-30T03:42:34.395Z,23.14
2023-04-30T03:45:01.746Z,23.03
2023-04-30T03:47:28.837Z,23.01
2023-04-30T03:49:56.421Z,22.98
2023-04-30T03:52:24.498Z,22.95
2023-04-30T03:54:51.508Z,22.97
2023-04-30T03:57:20.157Z,22.99
2023-04-30T04:02:56.366Z,22.78
2023-04-30T04:05:28.113Z,22.78
2023-04-30T04:07:59.096Z,22.76
2023-04-30T04:10:29.863Z,22.86
2023-04-30T04:12:57.610Z,22.79
2023-04-30T04:15:25.003Z,22.56
2023-04-30T04:17:52.364Z,22.63
2023-04-30T04:20:19.678Z,22.67
2023-04-30T04:22:49.907Z,22.76
2023-04-30T04:25:20.176Z,22.80
2023-04-30T04:27:47.608Z,22.85
2023-04-30T04:30:17.633Z,22.90
2023-04-30T04:32:49.510Z,22.89
2023-04-30T04:35:19.115Z,22.95
2023-04-30T04:37:46.170Z,22.95
2023-04-30T04:40:16.772Z,22.98
2023-04-30T04:42:46.781Z,23.02
2023-04-30T04:45:16.014Z,23.04
2023-04-30T04:47:43.509Z,23.02
2023-04-30T04:50:11.324Z,23.08
2023-04-30T04:52:39.282Z,23.11
2023-04-30T04:55:07.465Z,23.09
2023-04-30T04:57:34.697Z,23.08
2023-04-30T05:00:02.169Z,23.08
2023-04-30T05:02:30.257Z,23.06
2023-04-30T05:05:02.933Z,23.04
2023-04-30T05:07:36.288Z,23.04
2023-04-30T05:10:04.303Z,23.02
2023-04-30T05:12:34.700Z,23.07
2023-04-30T05:15:01.872Z,23.10
2023-04-30T05:17:29.396Z,23.11
2023-04-30T05:19:56.936Z,23.14
2023-04-30T05:22:24.621Z,23.13
2023-04-30T05:24:53.374Z,23.11
2023-04-30T05:27:23.320Z,23.17
2023-04-30T05:29:50.544Z,23.17
2023-04-30T05:32:17.651Z,23.18
2023-04-30T05:34:46.602Z,23.13
2023-04-30T05:37:20.838Z,23.13
2023-04-30T05:39:48.424Z,23.06
2023-04-30T05:42:19.240Z,23.05
2023-04-30T05:44:48.491Z,23.09
2023-04-30T05:47:15.663Z,23.06
2023-04-30T05:49:45.798Z,23.09
2023-04-30T05:52:14.430Z,23.12
2023-04-30T05:54:41.570Z,23.18
2023-04-30T05:57:08.765Z,23.19
2023-04-30T05:59:35.901Z,23.27
2023-04-30T06:02:03.245Z,23.28
2023-04-30T06:04:36.921Z,23.32
2023-04-30T06:07:04.214Z,23.26
2023-04-30T06:09:31.594Z,23.30
2023-04-30T06:11:58.824Z,23.30
2023-04-30T06:14:26.984Z,23.35
2023-04-30T06:16:56.681Z,23.37
2023-04-30T06:19:23.863Z,23.35
2023-04-30T06:21:50.965Z,23.42
2023-04-30T06:24:20.323Z,23.46
2023-04-30T06:26:47.772Z,23.45
2023-04-30T06:29:15.028Z,23.55
2023-04-30T06:31:42.269Z,23.45
2023-04-30T06:34:09.422Z,23.44
2023-04-30T06:36:38.884Z,23.51
2023-04-30T06:39:06.813Z,23.60
2023-04-30T06:41:34.253Z,23.54
2023-04-30T06:44:07.433Z,23.45
2023-04-30T06:46:35.096Z,23.37
2023-04-30T06:49:02.562Z,23.35
2023-04-30T06:51:32.903Z,23.43
2023-04-30T06:54:02.488Z,23.43
2023-04-30T06:56:33.081Z,23.45
2023-04-30T06:59:00.416Z,23.35
2023-04-30T07:01:36.616Z,23.36
2023-04-30T07:04:04.633Z,23.31
2023-04-30T07:06:32.026Z,23.28
2023-04-30T07:08:59.280Z,23.39
2023-04-30T07:11:26.856Z,23.42
2023-04-30T07:13:57.434Z,23.46
2023-04-30T07:16:29.618Z,23.40
2023-04-30T07:18:56.934Z,23.38
2023-04-30T07:21:29.627Z,23.34
2023-04-30T07:24:05.631Z,23.58
2023-04-30T07:26:37.463Z,23.39
2023-04-30T07:29:10.000Z,23.65
2023-04-30T07:31:40.125Z,23.74
2023-04-30T07:34:10.498Z,23.74
2023-04-30T07:36:45.012Z,23.85
2023-04-30T07:39:15.469Z,23.87
2023-04-30T07:41:54.106Z,23.83
2023-04-30T07:44:21.957Z,23.86
2023-04-30T07:46:50.073Z,23.92
2023-04-30T07:49:22.166Z,23.82
2023-04-30T07:51:58.190Z,23.92
2023-04-30T07:54:31.501Z,23.86
2023-04-30T07:57:04.082Z,23.92
2023-04-30T07:59:44.305Z,23.79
2023-04-30T08:02:13.956Z,24.09
2023-04-30T08:04:47.329Z,24.19
2023-04-30T08:07:17.039Z,24.34
2023-04-30T08:09:47.320Z,24.57
2023-04-30T08:12:22.347Z,24.66
2023-04-30T08:15:04.212Z,24.76
2023-04-30T08:17:39.156Z,25.09
2023-04-30T08:20:10.155Z,25.37
2023-04-30T08:22:39.779Z,25.52
2023-04-30T08:25:07.624Z,25.80
2023-04-30T08:27:44.711Z,25.92
2023-04-30T08:30:18.069Z,26.14
2023-04-30T08:32:49.699Z,26.26
2023-04-30T08:35:19.233Z,26.37
2023-04-30T08:37:46.794Z,26.54
2023-04-30T08:40:51.557Z,26.53
2023-04-30T08:43:20.672Z,26.83
2023-04-30T08:48:45.121Z,26.54
2023-04-30T08:51:13.351Z,26.63
2023-04-30T08:53:51.017Z,27.11
2023-04-30T08:56:31.509Z,27.00
2023-04-30T08:59:09.217Z,27.24
2023-04-30T09:01:38.281Z,27.36
2023-04-30T09:04:09.790Z,27.48
2023-04-30T09:06:45.072Z,27.64
2023-04-30T09:09:23.543Z,27.71
2023-04-30T09:12:19.332Z,27.61
2023-04-30T09:15:05.492Z,27.64
2023-04-30T09:17:38.167Z,27.30
2023-04-30T09:20:09.658Z,27.18
2023-04-30T09:22:43.616Z,27.26
2023-04-30T09:25:18.445Z,27.01
2023-04-30T09:28:24.385Z,27.10
2023-04-30T09:31:21.882Z,27.52
2023-04-30T09:34:01.382Z,27.12
2023-04-30T09:36:32.004Z,27.01
2023-04-30T09:39:14.250Z,27.03
2023-04-30T09:41:50.299Z,27.08
2023-04-30T09:44:30.830Z,27.40
2023-04-30T09:47:03.738Z,27.26
2023-04-30T09:49:41.464Z,27.40
2023-04-30T09:52:18.206Z,27.49
2023-04-30T09:54:51.308Z,27.45
2023-04-30T09:57:23.301Z,27.76
2023-04-30T09:59:57.054Z,27.77
2023-04-30T10:02:27.777Z,27.42
2023-04-30T10:05:01.645Z,27.52
2023-04-30T10:07:48.226Z,27.44
2023-04-30T10:10:23.382Z,27.42
2023-04-30T10:12:55.113Z,27.11
2023-04-30T10:15:57.585Z,27.26
2023-04-30T10:18:53.705Z,27.36
2023-04-30T10:21:35.642Z,28.00
2023-04-30T10:24:06.352Z,28.07
2023-04-30T10:26:54.487Z,28.10
2023-04-30T10:29:31.899Z,28.42
2023-04-30T10:32:02.195Z,28.62
2023-04-30T10:35:04.982Z,28.76
2023-04-30T10:38:15.549Z,28.95
2023-04-30T10:40:48.213Z,28.72
2023-04-30T10:43:19.081Z,28.98
2023-04-30T10:45:46.456Z,29.01
2023-04-30T10:48:25.336Z,28.88
2023-04-30T10:50:56.394Z,28.51
2023-04-30T10:53:28.204Z,28.82
2023-04-30T10:56:03.022Z,28.95
2023-04-30T10:58:36.410Z,28.88
2023-04-30T11:01:08.791Z,28.50
2023-04-30T11:03:38.573Z,28.41
2023-04-30T11:06:22.227Z,29.12
2023-04-30T11:08:53.394Z,28.89
2023-04-30T11:11:24.085Z,28.92
2023-04-30T11:14:01.936Z,29.18
2023-04-30T11:16:42.796Z,29.32
2023-04-30T11:19:15.349Z,29.65
2023-04-30T11:22:03.817Z,29.77
2023-04-30T11:24:52.968Z,29.34
2023-04-30T11:27:30.235Z,29.48
2023-04-30T11:30:10.364Z,29.46
2023-04-30T11:32:39.424Z,29.57
2023-04-30T11:35:09.677Z,29.42
2023-04-30T11:37:39.392Z,28.87
2023-04-30T11:40:14.255Z,28.64
2023-04-30T11:42:51.634Z,28.51
2023-04-30T11:45:25.815Z,29.18
2023-04-30T11:47:58.093Z,29.20
2023-04-30T11:50:42.845Z,28.85
2023-04-30T11:53:28.964Z,29.40
2023-04-30T11:55:59.119Z,28.48
2023-04-30T11:58:33.505Z,29.05
2023-04-30T12:01:04.956Z,28.64
2023-04-30T12:03:46.528Z,28.16
2023-04-30T12:06:26.646Z,27.52
2023-04-30T12:08:58.089Z,28.04
2023-04-30T12:11:27.412Z,28.20
2023-04-30T12:14:07.892Z,28.26
2023-04-30T12:16:52.321Z,28.72
2023-04-30T12:19:22.475Z,28.92
2023-04-30T12:21:50.337Z,28.99
2023-04-30T12:24:20.193Z,28.73
2023-04-30T12:26:48.256Z,28.12
2023-04-30T12:29:17.851Z,27.76
2023-04-30T12:31:52.675Z,28.00
2023-04-30T12:34:20.147Z,27.88
2023-04-30T12:36:47.551Z,28.44
2023-04-30T12:39:18.572Z,28.45
2023-04-30T12:41:50.018Z,28.69
2023-04-30T12:44:25.720Z,28.47
2023-04-30T12:46:57.408Z,28.36
2023-04-30T12:49:28.725Z,27.81
2023-04-30T12:52:14.248Z,27.83
2023-04-30T12:54:42.108Z,26.98
2023-04-30T12:57:13.198Z,26.49
2023-04-30T12:59:58.514Z,26.84
2023-04-30T13:02:36.070Z,27.29
2023-04-30T13:05:04.130Z,27.37
2023-04-30T13:07:43.953Z,27.90
2023-04-30T13:10:14.307Z,27.81
2023-04-30T13:12:43.906Z,27.85
2023-04-30T13:15:11.368Z,28.59
2023-04-30T13:17:42.617Z,28.08
2023-04-30T13:20:10.585Z,28.45
2023-04-30T13:22:38.013Z,28.56
2023-04-30T13:25:05.803Z,28.25
2023-04-30T13:27:32.884Z,28.02
2023-04-30T13:30:01.389Z,28.06
2023-04-30T13:32:28.796Z,27.47
2023-04-30T13:34:56.890Z,27.19
2023-04-30T13:37:24.601Z,27.33
2023-04-30T13:39:51.730Z,27.24
2023-04-30T13:42:19.121Z,26.79
2023-04-30T13:44:47.931Z,27.08
2023-04-30T13:47:15.372Z,27.24
2023-04-30T13:49:42.541Z,27.42
2023-04-30T13:52:10.349Z,27.19
2023-04-30T13:54:41.171Z,26.77
2023-04-30T13:57:08.383Z,26.54
2023-04-30T13:59:36.233Z,27.26
2023-04-30T14:02:03.555Z,27.05
2023-04-30T14:04:33.421Z,27.41
2023-04-30T14:07:02.179Z,26.82
2023-04-30T14:09:31.567Z,27.06
2023-04-30T14:11:59.290Z,27.15
2023-04-30T14:14:27.138Z,27.21
2023-04-30T14:16:54.768Z,26.85
2023-04-30T14:19:25.510Z,26.91
2023-04-30T14:21:52.700Z,26.70
2023-04-30T14:24:20.476Z,27.20
2023-04-30T14:26:47.833Z,26.95
2023-04-30T14:29:19.331Z,26.57
2023-04-30T14:31:51.312Z,26.64
2023-04-30T14:34:21.357Z,26.24
2023-04-30T14:36:48.508Z,26.35
2023-04-30T14:39:15.862Z,25.95
2023-04-30T14:41:43.080Z,25.84
2023-04-30T14:44:21.292Z,25.36
2023-04-30T14:46:48.591Z,25.50
2023-04-30T14:49:23.231Z,25.26
2023-04-30T14:51:55.417Z,25.54
2023-04-30T14:54:23.212Z,25.09
2023-04-30T14:56:50.862Z,25.41
2023-04-30T14:59:18.504Z,25.75
2023-04-30T15:01:49.066Z,25.77
2023-04-30T15:04:16.567Z,25.23
2023-04-30T15:06:44.024Z,25.22
2023-04-30T15:09:14.442Z,25.33
2023-04-30T15:11:41.572Z,24.73
2023-04-30T15:14:12.078Z,24.78
2023-04-30T15:16:39.727Z,25.17
2023-04-30T15:19:06.902Z,25.30
2023-04-30T15:21:34.323Z,25.41
2023-04-30T15:24:04.115Z,25.38
2023-04-30T15:26:31.582Z,25.17
2023-04-30T15:28:58.661Z,25.44
2023-04-30T15:31:25.886Z,25.09
2023-04-30T15:33:56.047Z,25.09
2023-04-30T15:36:23.591Z,24.67
2023-04-30T15:38:51.274Z,24.68
2023-04-30T15:41:18.332Z,24.80
2023-04-30T15:43:48.414Z,24.73
2023-04-30T15:46:16.251Z,24.53
2023-04-30T15:48:43.449Z,24.62
2023-04-30T15:51:10.540Z,24.27
2023-04-30T15:53:40.298Z,24.25
2023-04-30T15:56:09.015Z,23.99
2023-04-30T15:58:36.030Z,23.51
2023-04-30T16:01:03.311Z,23.39
2023-04-30T16:03:33.385Z,23.16
2023-04-30T16:06:08.489Z,22.81
2023-04-30T16:08:36.048Z,22.61
2023-04-30T16:11:04.121Z,22.46
2023-04-30T16:13:31.521Z,22.52
2023-04-30T16:15:58.941Z,21.98
2023-04-30T16:18:26.205Z,21.86
2023-04-30T16:20:53.604Z,21.69
2023-04-30T16:23:21.009Z,21.75
2023-04-30T16:25:48.048Z,21.38
2023-04-30T16:28:15.238Z,21.56
2023-04-30T16:30:42.711Z,21.44
2023-04-30T16:33:15.059Z,21.63
2023-04-30T16:35:44.550Z,21.80
2023-04-30T16:38:13.127Z,21.97
2023-04-30T16:40:40.804Z,21.96
2023-04-30T16:43:08.381Z,22.02
2023-04-30T16:45:36.131Z,22.07
2023-04-30T16:48:03.697Z,21.97
2023-04-30T16:50:33.702Z,22.09
2023-04-30T16:53:00.767Z,22.23
2023-04-30T16:55:27.802Z,22.18
2023-04-30T16:57:55.168Z,22.35
2023-04-30T17:00:22.353Z,22.40
2023-04-30T17:02:50.416Z,22.25
2023-04-30T17:05:17.536Z,22.43
2023-04-30T17:07:45.102Z,22.20
2023-04-30T17:10:13.389Z,22.28
2023-04-30T17:12:40.621Z,22.32
2023-04-30T17:15:08.172Z,22.24
2023-04-30T17:17:35.361Z,22.41
2023-04-30T17:20:02.563Z,22.17
2023-04-30T17:22:33.149Z,22.15
2023-04-30T17:25:02.328Z,22.07
2023-04-30T17:27:31.293Z,22.13
2023-04-30T17:29:58.678Z,22.06
2023-04-30T17:32:27.289Z,22.00
2023-04-30T17:34:54.684Z,22.39
2023-04-30T17:37:21.809Z,22.25
2023-04-30T17:39:49.019Z,22.37
2023-04-30T17:42:16.612Z,22.53
2023-04-30T17:44:45.272Z,22.38
2023-04-30T17:47:15.500Z,22.30
2023-04-30T17:49:43.338Z,22.39
2023-04-30T17:52:13.792Z,22.50
2023-04-30T17:54:45.148Z,22.38
2023-04-30T17:57:12.274Z,22.19
2023-04-30T17:59:40.256Z,22.28
2023-04-30T18:02:10.213Z,22.11
2023-04-30T18:04:43.364Z,22.45
2023-04-30T18:07:11.107Z,22.49
2023-04-30T18:09:38.167Z,22.59
2023-04-30T18:12:05.969Z,22.45
2023-04-30T18:14:32.971Z,22.46
2023-04-30T18:17:00.116Z,22.70
2023-04-30T18:19:30.131Z,22.41
2023-04-30T18:21:57.543Z,22.51
2023-04-30T18:24:27.940Z,22.59
2023-04-30T18:26:58.531Z,22.48
2023-04-30T18:29:26.632Z,22.52
2023-04-30T18:31:53.686Z,22.74
2023-04-30T18:34:20.742Z,22.64
2023-04-30T18:36:47.848Z,22.60
2023-04-30T18:39:15.117Z,22.67
2023-04-30T18:41:42.265Z,22.77
2023-04-30T18:44:11.915Z,22.74
2023-04-30T18:46:39.095Z,22.72
2023-04-30T18:49:06.751Z,22.78
2023-04-30T18:51:41.231Z,22.68
2023-04-30T18:54:13.837Z,22.58
2023-04-30T18:56:41.270Z,22.65
2023-04-30T18:59:08.562Z,22.50
2023-04-30T19:01:40.985Z,22.48
2023-04-30T19:04:13.912Z,22.65
2023-04-30T19:06:45.558Z,22.60
2023-04-30T19:09:15.841Z,22.47
2023-04-30T19:11:48.752Z,22.44
2023-04-30T19:14:20.720Z,22.59
2023-04-30T19:16:53.490Z,22.56
2023-04-30T19:19:26.863Z,22.58
2023-04-30T19:21:59.498Z,22.67
2023-04-30T19:24:27.093Z,22.63
2023-04-30T19:26:54.678Z,22.66
2023-04-30T19:29:24.847Z,22.57
2023-04-30T19:31:54.680Z,22.71
2023-04-30T19:34:23.353Z,22.72
2023-04-30T19:39:46.765Z,22.37
2023-04-30T19:42:38.914Z,22.50
2023-04-30T19:45:10.553Z,22.54
2023-04-30T19:47:41.567Z,22.54
2023-04-30T19:50:18.663Z,22.53
2023-04-30T19:53:16.575Z,22.50
2023-04-30T19:55:53.993Z,22.54
2023-04-30T19:58:25.793Z,22.52
2023-04-30T20:01:19.896Z,22.51
2023-04-30T20:03:56.495Z,22.43
2023-04-30T20:06:28.615Z,22.42
2023-04-30T20:09:02.217Z,22.31
2023-04-30T20:11:31.406Z,22.52
2023-04-30T20:14:02.530Z,22.43
2023-04-30T20:16:32.365Z,22.52
2023-04-30T20:19:03.508Z,22.54
2023-04-30T20:21:32.467Z,22.57
2023-04-30T20:24:00.552Z,22.29
2023-04-30T20:26:27.907Z,22.50
2023-04-30T20:29:03.334Z,22.57
2023-04-30T20:31:33.167Z,22.50
2023-04-30T20:34:04.239Z,22.54
2023-04-30T20:36:42.460Z,22.60
2023-04-30T20:39:11.457Z,22.43
2023-04-30T20:41:39.614Z,22.37
2023-04-30T20:44:09.995Z,22.34
2023-04-30T20:46:38.510Z,22.49
2023-04-30T20:49:07.233Z,22.42
2023-04-30T20:51:34.651Z,22.42
2023-04-30T20:54:04.435Z,22.45
2023-04-30T20:56:36.628Z,22.39
2023-04-30T20:59:05.424Z,22.48
2023-04-30T21:01:34.829Z,22.38
2023-04-30T21:04:04.060Z,22.58
2023-04-30T21:06:34.092Z,22.40
2023-04-30T21:09:06.709Z,22.44
2023-04-30T21:11:35.357Z,22.53
2023-04-30T21:16:52.022Z,22.55
2023-04-30T21:19:21.211Z,22.60
2023-04-30T21:21:52.688Z,22.45
2023-04-30T21:24:22.279Z,22.32
2023-04-30T21:26:55.524Z,22.39
2023-04-30T21:29:27.856Z,22.46
2023-04-30T21:31:56.717Z,22.58
2023-04-30T21:34:29.602Z,22.57
2023-04-30T21:36:57.998Z,22.56
2023-04-30T21:39:25.452Z,22.65
2023-04-30T21:41:54.192Z,22.55
2023-04-30T21:44:22.399Z,22.52
2023-04-30T21:46:53.023Z,22.58
2023-04-30T21:49:23.017Z,22.46
2023-04-30T21:51:51.426Z,22.59
2023-04-30T21:54:22.348Z,22.42
2023-04-30T21:56:56.119Z,22.32
2023-04-30T21:59:25.546Z,22.23
2023-04-30T22:01:54.118Z,22.28
2023-04-30T22:04:25.835Z,22.30
2023-04-30T22:06:54.474Z,22.31
2023-04-30T22:09:23.854Z,22.23
2023-04-30T22:11:52.648Z,22.29
2023-04-30T22:14:20.831Z,22.24
2023-04-30T22:16:49.957Z,22.14
2023-04-30T22:19:21.078Z,22.33
2023-04-30T22:21:49.350Z,22.27
2023-04-30T22:24:16.779Z,22.28
2023-04-30T22:26:44.485Z,22.24
2023-04-30T22:29:11.664Z,22.28
2023-04-30T22:31:40.630Z,22.31
2023-04-30T22:34:11.584Z,22.25
2023-04-30T22:36:45.265Z,22.37
2023-04-30T22:39:13.940Z,22.37
2023-04-30T22:41:47.377Z,22.29
2023-04-30T22:44:15.319Z,22.28
2023-04-30T22:46:46.167Z,22.29
2023-04-30T22:49:23.818Z,22.33
2023-04-30T22:51:57.821Z,22.27
2023-04-30T22:54:25.573Z,22.33
2023-04-30T22:56:59.130Z,22.46
2023-04-30T23:02:07.509Z,22.40
2023-04-30T23:04:36.422Z,22.30
2023-04-30T23:07:03.886Z,22.31
2023-04-30T23:09:31.064Z,22.34
2023-04-30T23:11:58.267Z,22.42
2023-04-30T23:14:26.051Z,22.40
2023-04-30T23:16:54.672Z,22.35
2023-04-30T23:19:22.358Z,22.31
2023-04-30T23:21:49.664Z,22.39
2023-04-30T23:24:16.831Z,22.46
2023-04-30T23:26:44.539Z,22.44
2023-04-30T23:29:11.783Z,22.46
2023-04-30T23:31:39.024Z,22.29
2023-04-30T23:34:06.531Z,22.34
2023-04-30T23:36:35.014Z,22.36
2023-04-30T23:39:02.745Z,22.42
2023-04-30T23:41:30.655Z,22.41
2023-04-30T23:43:57.854Z,22.38
2023-04-30T23:46:25.184Z,22.48
2023-04-30T23:48:52.572Z,22.46
2023-04-30T23:51:21.771Z,22.47
2023-04-30T23:53:52.005Z,22.45
2023-04-30T23:56:26.673Z,22.44
